createdAt,value
2023-05-18T00:01:14.776Z,14.78
2023-05-18T00:03:42.882Z,14.77
2023-05-18T00:06:10.962Z,14.76
2023-05-18T00:08:38.835Z,14.74
2023-05-18T00:11:06.863Z,14.73
2023-05-18T00:13:34.730Z,14.71
2023-05-18T00:16:02.552Z,14.69
2023-05-18T00:18:31.106Z,14.68
2023-05-18T00:21:00.755Z,14.66
2023-05-18T00:23:33.245Z,14.66
2023-05-18T00:26:01.991Z,14.64
2023-05-18T00:28:29.928Z,14.62
2023-05-18T00:30:58.107Z,14.60
2023-05-18T00:33:26.067Z,14.59
2023-05-18T00:35:54.054Z,14.58
2023-05-18T00:38:22.031Z,14.57
2023-05-18T00:40:50.099Z,14.56
2023-05-18T00:43:18.096Z,14.55
2023-05-18T00:45:46.182Z,14.52
2023-05-18T00:48:14.092Z,14.51
2023-05-18T00:50:41.904Z,14.50
2023-05-18T00:53:12.820Z,14.49
2023-05-18T00:55:41.068Z,14.48
2023-05-18T00:58:09.232Z,14.48
2023-05-18T01:00:37.858Z,14.47
2023-05-18T01:03:06.387Z,14.48
2023-05-18T01:05:34.453Z,14.47
2023-05-18T01:08:03.380Z,14.46
2023-05-18T01:10:33.265Z,14.46
2023-05-18T01:13:05.851Z,14.45
2023-05-18T01:15:38.181Z,14.45
2023-05-18T01:18:21.991Z,14.44
2023-05-18T01:20:57.701Z,14.45
2023-05-18T01:23:52.585Z,14.45
2023-05-18T01:26:24.958Z,14.46
2023-05-18T01:28:54.474Z,14.48
2023-05-18T01:31:23.226Z,14.50
2023-05-18T01:33:51.482Z,14.51
2023-05-18T01:36:19.674Z,14.52
2023-05-18T01:38:48.030Z,14.54
2023-05-18T01:41:24.213Z,14.55
2023-05-18T01:43:56.035Z,14.57
2023-05-18T01:46:43.693Z,14.59
2023-05-18T01:49:17.017Z,14.60
2023-05-18T01:51:46.380Z,14.62
2023-05-18T01:54:16.805Z,14.64
2023-05-18T01:56:45.589Z,14.66
2023-05-18T01:59:15.118Z,14.69
2023-05-18T02:01:43.165Z,14.71
2023-05-18T02:04:11.410Z,14.72
2023-05-18T02:06:39.731Z,14.75
2023-05-18T02:09:09.668Z,14.76
2023-05-18T02:11:37.655Z,14.78
2023-05-18T02:14:05.830Z,14.79
2023-05-18T02:16:33.828Z,14.80
2023-05-18T02:19:01.969Z,14.81
2023-05-18T02:21:31.568Z,14.81
2023-05-18T02:23:59.499Z,14.82
2023-05-18T02:26:27.573Z,14.83
2023-05-18T02:28:55.466Z,14.84
2023-05-18T02:31:23.318Z,14.85
2023-05-18T02:33:51.454Z,14.87
2023-05-18T02:36:22.669Z,14.88
2023-05-18T02:38:50.760Z,14.88
2023-05-18T02:41:18.615Z,14.87
2023-05-18T02:43:46.654Z,14.86
2023-05-18T02:46:14.673Z,14.86
2023-05-18T02:48:45.962Z,14.84
2023-05-18T02:51:14.054Z,14.84
2023-05-18T02:53:44.446Z,14.84
2023-05-18T02:56:13.952Z,14.84
2023-05-18T02:58:50.622Z,14.83
2023-05-18T03:01:27.068Z,14.84
2023-05-18T03:03:57.928Z,14.83
2023-05-18T03:06:27.088Z,14.81
2023-05-18T03:08:56.555Z,14.79
2023-05-18T03:11:29.943Z,14.75
2023-05-18T03:13:58.035Z,14.70
2023-05-18T03:16:28.887Z,14.66
2023-05-18T03:18:59.275Z,14.63
2023-05-18T03:21:36.179Z,14.61
2023-05-18T03:24:04.674Z,14.57
2023-05-18T03:26:33.773Z,14.53
2023-05-18T03:29:02.221Z,14.49
2023-05-18T03:31:30.476Z,14.45
2023-05-18T03:33:59.952Z,14.42
2023-05-18T03:36:30.535Z,14.38
2023-05-18T03:38:59.206Z,14.34
2023-05-18T03:41:28.501Z,14.32
2023-05-18T03:43:56.666Z,14.29
2023-05-18T03:46:25.267Z,14.25
2023-05-18T03:48:54.538Z,14.23
2023-05-18T03:51:29.166Z,14.21
2023-05-18T03:53:57.559Z,14.20
2023-05-18T03:56:26.150Z,14.18
2023-05-18T03:58:54.059Z,14.16
2023-05-18T04:01:24.024Z,14.15
2023-05-18T04:03:56.745Z,14.15
2023-05-18T04:06:27.174Z,14.13
2023-05-18T04:08:55.407Z,14.12
2023-05-18T04:11:24.609Z,14.11
2023-05-18T04:13:52.816Z,14.09
2023-05-18T04:16:22.095Z,14.08
2023-05-18T04:18:50.556Z,14.06
2023-05-18T04:21:19.448Z,14.06
2023-05-18T04:23:47.549Z,14.06
2023-05-18T04:26:20.204Z,14.05
2023-05-18T04:28:48.433Z,14.03
2023-05-18T04:31:18.105Z,14.02
2023-05-18T04:33:47.448Z,14.01
2023-05-18T04:36:21.384Z,14.00
2023-05-18T04:38:50.997Z,14.00
2023-05-18T04:41:22.658Z,14.00
2023-05-18T04:43:50.687Z,13.99
2023-05-18T04:46:19.051Z,13.99
2023-05-18T04:48:50.133Z,13.98
2023-05-18T04:51:21.599Z,13.98
2023-05-18T04:53:50.210Z,13.97
2023-05-18T04:56:18.726Z,13.97
2023-05-18T04:58:48.385Z,13.97
2023-05-18T05:01:17.180Z,13.96
2023-05-18T05:03:45.769Z,13.96
2023-05-18T05:06:13.843Z,13.95
2023-05-18T05:08:41.902Z,13.94
2023-05-18T05:11:09.810Z,13.94
2023-05-18T05:13:37.658Z,13.94
2023-05-18T05:16:06.070Z,13.94
2023-05-18T05:18:34.109Z,13.95
2023-05-18T05:21:02.189Z,13.94
2023-05-18T05:23:30.276Z,13.93
2023-05-18T05:25:58.341Z,13.92
2023-05-18T05:28:29.579Z,13.92
2023-05-18T05:30:57.782Z,13.91
2023-05-18T05:33:26.149Z,13.90
2023-05-18T05:35:54.540Z,13.89
2023-05-18T05:38:22.652Z,13.88
2023-05-18T05:40:50.706Z,13.88
2023-05-18T05:43:18.545Z,13.87
2023-05-18T05:45:47.592Z,13.89
2023-05-18T05:48:16.045Z,13.90
2023-05-18T05:50:43.989Z,13.91
2023-05-18T05:53:11.976Z,13.92
2023-05-18T05:55:43.612Z,13.92
2023-05-18T05:58:14.212Z,13.93
2023-05-18T06:00:46.790Z,13.94
2023-05-18T06:03:15.844Z,13.96
2023-05-18T06:05:46.338Z,13.97
2023-05-18T06:08:17.329Z,13.99
2023-05-18T06:10:46.245Z,14.00
2023-05-18T06:13:14.501Z,14.02
2023-05-18T06:15:47.900Z,14.03
2023-05-18T06:18:16.182Z,14.04
2023-05-18T06:20:45.660Z,14.05
2023-05-18T06:23:15.812Z,14.06
2023-05-18T06:26:13.047Z,14.08
2023-05-18T06:28:44.049Z,14.09
2023-05-18T06:31:34.879Z,14.11
2023-05-18T06:34:15.600Z,14.13
2023-05-18T06:36:43.834Z,14.16
2023-05-18T06:39:11.754Z,14.20
2023-05-18T06:41:39.982Z,14.23
2023-05-18T06:44:07.902Z,14.26
2023-05-18T06:46:40.331Z,14.31
2023-05-18T06:49:21.622Z,14.35
2023-05-18T06:51:49.577Z,14.40
2023-05-18T06:54:17.805Z,14.45
2023-05-18T06:56:46.470Z,14.49
2023-05-18T06:59:14.349Z,14.54
2023-05-18T07:01:42.616Z,14.57
2023-05-18T07:04:11.340Z,14.61
2023-05-18T07:06:39.263Z,14.65
2023-05-18T07:09:08.876Z,14.69
2023-05-18T07:11:36.869Z,14.73
2023-05-18T07:14:04.808Z,14.77
2023-05-18T07:16:32.752Z,14.79
2023-05-18T07:19:00.853Z,14.80
2023-05-18T07:21:28.808Z,14.81
2023-05-18T07:23:56.712Z,14.82
2023-05-18T07:26:24.560Z,14.83
2023-05-18T07:28:52.322Z,14.84
2023-05-18T07:31:21.753Z,14.85
2023-05-18T07:33:50.312Z,14.86
2023-05-18T07:36:18.370Z,14.86
2023-05-18T07:38:46.636Z,14.87
2023-05-18T07:41:14.478Z,14.86
2023-05-18T07:43:42.440Z,14.86
2023-05-18T07:46:10.308Z,14.86
2023-05-18T07:48:40.519Z,14.86
2023-05-18T07:51:09.372Z,14.87
2023-05-18T07:53:38.113Z,14.87
2023-05-18T07:56:07.575Z,14.87
2023-05-18T07:58:36.768Z,14.88
2023-05-18T08:01:04.722Z,14.87
2023-05-18T08:03:33.184Z,14.88
2023-05-18T08:06:01.230Z,14.88
2023-05-18T08:08:29.395Z,14.89
2023-05-18T08:10:57.692Z,14.89
2023-05-18T08:13:25.872Z,14.90
2023-05-18T08:16:09.776Z,14.90
2023-05-18T08:18:40.187Z,14.91
2023-05-18T08:21:10.060Z,14.93
2023-05-18T08:23:38.866Z,14.94
2023-05-18T08:26:10.056Z,14.95
2023-05-18T08:28:39.066Z,14.96
2023-05-18T08:31:07.573Z,14.97
2023-05-18T08:33:35.522Z,14.98
2023-05-18T08:36:03.565Z,14.97
2023-05-18T08:38:32.279Z,14.97
2023-05-18T08:41:26.701Z,14.97
2023-05-18T08:44:04.992Z,14.96
2023-05-18T08:46:34.253Z,14.96
2023-05-18T08:49:03.605Z,14.96
2023-05-18T08:51:34.118Z,14.95
2023-05-18T08:54:02.945Z,14.95
2023-05-18T08:56:31.624Z,14.95
2023-05-18T08:58:59.999Z,14.94
2023-05-18T09:01:31.348Z,14.92
2023-05-18T09:04:00.846Z,14.92
2023-05-18T09:06:29.051Z,14.92
2023-05-18T09:09:04.475Z,14.92
2023-05-18T09:11:33.175Z,14.92
2023-05-18T09:14:01.493Z,14.93
2023-05-18T09:16:30.535Z,14.95
2023-05-18T09:18:58.537Z,14.96
2023-05-18T09:21:26.474Z,14.97
2023-05-18T09:23:54.670Z,14.98
2023-05-18T09:26:22.960Z,15.01
2023-05-18T09:28:54.387Z,15.03
2023-05-18T09:31:24.954Z,15.05
2023-05-18T09:33:53.238Z,15.08
2023-05-18T09:36:26.526Z,15.11
2023-05-18T09:38:54.642Z,15.14
2023-05-18T09:41:26.086Z,15.18
2023-05-18T09:43:54.667Z,15.22
2023-05-18T09:46:22.543Z,15.25
2023-05-18T09:48:51.607Z,15.30
2023-05-18T09:51:21.149Z,15.34
2023-05-18T09:53:49.912Z,15.38
2023-05-18T09:56:18.070Z,15.43
2023-05-18T09:58:46.168Z,15.47
2023-05-18T10:01:14.150Z,15.52
2023-05-18T10:03:42.365Z,15.57
2023-05-18T10:06:13.479Z,15.62
2023-05-18T10:08:41.770Z,15.67
2023-05-18T10:11:09.826Z,15.73
2023-05-18T10:13:38.318Z,15.77
2023-05-18T10:16:07.953Z,15.82
2023-05-18T10:18:37.057Z,15.87
2023-05-18T10:21:06.231Z,15.91
2023-05-18T10:23:35.654Z,15.97
2023-05-18T10:26:07.950Z,16.01
2023-05-18T10:28:41.946Z,16.07
2023-05-18T10:31:10.078Z,16.12
2023-05-18T10:33:38.889Z,16.17
2023-05-18T10:36:07.707Z,16.21
2023-05-18T10:38:36.918Z,16.26
2023-05-18T10:41:05.904Z,16.30
2023-05-18T10:43:34.323Z,16.35
2023-05-18T10:46:02.442Z,16.40
2023-05-18T10:48:31.613Z,16.45
2023-05-18T10:50:59.732Z,16.49
2023-05-18T10:53:30.087Z,16.54
2023-05-18T10:55:58.055Z,16.60
2023-05-18T10:58:27.945Z,16.64
2023-05-18T11:00:57.439Z,16.70
2023-05-18T11:03:27.117Z,16.75
2023-05-18T11:06:06.985Z,16.80
2023-05-18T11:08:42.772Z,16.85
2023-05-18T11:11:10.647Z,16.91
2023-05-18T11:13:43.655Z,16.96
2023-05-18T11:16:11.646Z,17.02
2023-05-18T11:18:47.113Z,17.07
2023-05-18T11:21:18.813Z,17.12
2023-05-18T11:24:05.441Z,17.17
2023-05-18T11:26:38.101Z,17.21
2023-05-18T11:29:19.404Z,17.26
2023-05-18T11:31:51.854Z,17.33
2023-05-18T11:34:39.804Z,17.39
2023-05-18T11:37:10.434Z,17.44
2023-05-18T11:39:47.883Z,17.48
2023-05-18T11:42:23.518Z,17.53
2023-05-18T11:44:52.549Z,17.58
2023-05-18T11:47:20.631Z,17.62
2023-05-18T11:49:49.179Z,17.67
2023-05-18T11:52:19.121Z,17.71
2023-05-18T11:54:54.279Z,17.75
2023-05-18T11:57:34.757Z,17.79
2023-05-18T12:00:09.692Z,17.84
2023-05-18T12:02:45.603Z,17.88
2023-05-18T12:05:14.388Z,17.91
2023-05-18T12:07:42.854Z,17.94
2023-05-18T12:10:17.782Z,17.98
2023-05-18T12:12:48.060Z,18.02
2023-05-18T12:15:17.481Z,18.06
2023-05-18T12:17:47.177Z,18.09
2023-05-18T12:20:16.752Z,18.12
2023-05-18T12:22:46.132Z,18.15
2023-05-18T12:25:13.961Z,18.19
2023-05-18T12:27:43.921Z,18.23
2023-05-18T12:30:19.068Z,18.25
2023-05-18T12:32:54.804Z,18.29
2023-05-18T12:35:23.798Z,18.32
2023-05-18T12:37:52.256Z,18.35
2023-05-18T12:40:20.518Z,18.38
2023-05-18T12:42:55.289Z,18.41
2023-05-18T12:45:25.800Z,18.45
2023-05-18T12:47:55.433Z,18.48
2023-05-18T12:50:27.718Z,18.51
2023-05-18T12:52:59.361Z,18.55
2023-05-18T12:55:28.388Z,18.57
2023-05-18T12:58:07.656Z,18.59
2023-05-18T13:00:36.485Z,18.63
2023-05-18T13:03:10.266Z,18.66
2023-05-18T13:05:42.046Z,18.69
2023-05-18T13:08:13.913Z,18.70
2023-05-18T13:10:43.220Z,18.73
2023-05-18T13:13:15.695Z,18.75
2023-05-18T13:15:44.193Z,18.77
2023-05-18T13:18:12.641Z,18.77
2023-05-18T13:20:42.991Z,18.78
2023-05-18T13:23:10.960Z,18.79
2023-05-18T13:25:39.553Z,18.80
2023-05-18T13:28:07.697Z,18.81
2023-05-18T13:30:35.598Z,18.82
2023-05-18T13:33:03.833Z,18.82
2023-05-18T13:35:31.938Z,18.83
2023-05-18T13:38:00.336Z,18.81
2023-05-18T13:40:28.441Z,18.79
2023-05-18T13:42:56.327Z,18.77
2023-05-18T13:45:24.469Z,18.75
2023-05-18T13:47:53.759Z,18.74
2023-05-18T13:50:23.140Z,18.73
2023-05-18T13:52:51.223Z,18.74
2023-05-18T13:55:19.297Z,18.74
2023-05-18T13:57:47.279Z,18.74
2023-05-18T14:00:17.091Z,18.75
2023-05-18T14:02:45.109Z,18.76
2023-05-18T14:05:13.596Z,18.76
2023-05-18T14:07:42.306Z,18.75
2023-05-18T14:10:10.982Z,18.73
2023-05-18T14:12:39.367Z,18.73
2023-05-18T14:15:07.583Z,18.74
2023-05-18T14:17:36.127Z,18.77
2023-05-18T14:20:07.359Z,18.79
2023-05-18T14:22:35.236Z,18.81
2023-05-18T14:25:03.160Z,18.83
2023-05-18T14:27:31.431Z,18.84
2023-05-18T14:29:59.325Z,18.85
2023-05-18T14:32:27.255Z,18.84
2023-05-18T14:34:58.113Z,18.82
2023-05-18T14:37:26.321Z,18.82
2023-05-18T14:39:54.525Z,18.80
2023-05-18T14:42:22.612Z,18.80
2023-05-18T14:44:50.623Z,18.81
2023-05-18T14:47:18.478Z,18.80
2023-05-18T14:49:46.288Z,18.81
2023-05-18T14:52:16.562Z,18.80
2023-05-18T14:54:44.536Z,18.78
2023-05-18T14:57:12.932Z,18.78
2023-05-18T14:59:40.853Z,18.78
2023-05-18T15:02:09.229Z,18.77
2023-05-18T15:04:37.300Z,18.76
2023-05-18T15:07:06.452Z,18.75
2023-05-18T15:09:34.231Z,18.73
2023-05-18T15:12:02.500Z,18.69
2023-05-18T15:14:30.568Z,18.66
2023-05-18T15:16:58.901Z,18.62
2023-05-18T15:19:27.222Z,18.60
2023-05-18T15:21:55.036Z,18.59
2023-05-18T15:24:22.886Z,18.57
2023-05-18T15:26:51.393Z,18.56
2023-05-18T15:29:19.252Z,18.57
2023-05-18T15:31:50.965Z,18.56
2023-05-18T15:34:19.382Z,18.56
2023-05-18T15:36:47.359Z,18.56
2023-05-18T15:39:15.308Z,18.56
2023-05-18T15:41:43.082Z,18.55
2023-05-18T15:44:11.099Z,18.55
2023-05-18T15:46:38.927Z,18.52
2023-05-18T15:49:06.789Z,18.50
2023-05-18T15:51:34.615Z,18.48
2023-05-18T15:54:02.591Z,18.45
2023-05-18T15:56:30.445Z,18.41
2023-05-18T15:58:58.348Z,18.38
2023-05-18T16:01:26.218Z,18.36
2023-05-18T16:03:54.075Z,18.34
2023-05-18T16:06:22.136Z,18.32
2023-05-18T16:08:50.107Z,18.28
2023-05-18T16:11:18.075Z,18.25
2023-05-18T16:13:47.791Z,18.24
2023-05-18T16:16:16.330Z,18.24
2023-05-18T16:18:44.276Z,18.24
2023-05-18T16:21:12.326Z,18.23
2023-05-18T16:23:41.742Z,18.23
2023-05-18T16:26:10.234Z,18.23
2023-05-18T16:28:38.095Z,18.24
2023-05-18T16:31:08.174Z,18.22
2023-05-18T16:33:36.134Z,18.21
2023-05-18T16:36:05.191Z,18.20
2023-05-18T16:38:37.585Z,18.17
2023-05-18T16:41:05.902Z,18.14
2023-05-18T16:43:35.482Z,18.12
2023-05-18T16:46:03.606Z,18.11
2023-05-18T16:48:31.621Z,18.10
2023-05-18T16:50:59.361Z,18.10
2023-05-18T16:53:27.179Z,18.09
2023-05-18T16:55:55.326Z,18.09
2023-05-18T16:58:23.171Z,18.09
2023-05-18T17:00:51.285Z,18.09
2023-05-18T17:03:19.777Z,18.08
2023-05-18T17:05:48.350Z,18.08
2023-05-18T17:08:16.143Z,18.08
2023-05-18T17:10:43.965Z,18.08
2023-05-18T17:13:11.802Z,18.08
2023-05-18T17:15:39.630Z,18.08
2023-05-18T17:18:07.728Z,18.08
2023-05-18T17:20:35.654Z,18.07
2023-05-18T17:23:04.589Z,18.07
2023-05-18T17:25:32.586Z,18.07
2023-05-18T17:28:00.656Z,18.07
2023-05-18T17:30:28.529Z,18.06
2023-05-18T17:32:56.739Z,18.07
2023-05-18T17:35:25.206Z,18.07
2023-05-18T17:37:54.694Z,18.09
2023-05-18T17:40:22.651Z,18.12
2023-05-18T17:42:50.611Z,18.13
2023-05-18T17:45:18.807Z,18.14
2023-05-18T17:47:46.699Z,18.13
2023-05-18T17:50:14.753Z,18.13
2023-05-18T17:52:42.830Z,18.14
2023-05-18T17:55:10.741Z,18.15
2023-05-18T17:57:45.404Z,18.15
2023-05-18T18:00:13.763Z,18.14
2023-05-18T18:02:42.436Z,18.13
2023-05-18T18:05:10.898Z,18.08
2023-05-18T18:07:39.288Z,18.01
2023-05-18T18:10:07.337Z,17.93
2023-05-18T18:12:35.134Z,17.88
2023-05-18T18:15:03.214Z,17.85
2023-05-18T18:17:33.169Z,17.79
2023-05-18T18:20:01.082Z,17.73
2023-05-18T18:22:28.994Z,17.69
2023-05-18T18:24:56.846Z,17.64
2023-05-18T18:27:24.684Z,17.60
2023-05-18T18:29:53.002Z,17.54
2023-05-18T18:32:20.830Z,17.46
2023-05-18T18:34:48.605Z,17.38
2023-05-18T18:37:17.329Z,17.32
2023-05-18T18:39:45.294Z,17.28
2023-05-18T18:42:13.172Z,17.20
2023-05-18T18:44:41.270Z,17.16
2023-05-18T18:47:09.143Z,17.10
2023-05-18T18:49:37.046Z,17.05
2023-05-18T18:52:05.693Z,17.02
2023-05-18T18:54:33.553Z,17.00
2023-05-18T18:57:02.146Z,16.98
2023-05-18T18:59:30.023Z,16.97
2023-05-18T19:01:58.208Z,16.96
2023-05-18T19:04:26.111Z,16.94
2023-05-18T19:06:55.264Z,16.90
2023-05-18T19:09:23.082Z,16.86
2023-05-18T19:11:51.044Z,16.83
2023-05-18T19:14:18.992Z,16.81
2023-05-18T19:16:47.066Z,16.79
2023-05-18T19:19:15.220Z,16.76
2023-05-18T19:21:44.441Z,16.75
2023-05-18T19:24:12.725Z,16.74
2023-05-18T19:26:40.712Z,16.71
2023-05-18T19:29:08.578Z,16.68
2023-05-18T19:31:38.081Z,16.65
2023-05-18T19:34:06.161Z,16.61
2023-05-18T19:36:34.010Z,16.58
2023-05-18T19:39:01.822Z,16.54
2023-05-18T19:41:29.759Z,16.52
2023-05-18T19:43:57.744Z,16.49
2023-05-18T19:46:25.639Z,16.45
2023-05-18T19:48:56.292Z,16.42
2023-05-18T19:51:24.473Z,16.38
2023-05-18T19:53:52.252Z,16.35
2023-05-18T19:56:21.912Z,16.31
2023-05-18T19:58:49.751Z,16.28
2023-05-18T20:01:18.862Z,16.26
2023-05-18T20:03:48.075Z,16.24
2023-05-18T20:06:16.254Z,16.21
2023-05-18T20:08:44.681Z,16.18
2023-05-18T20:11:12.762Z,16.16
2023-05-18T20:13:43.058Z,16.13
2023-05-18T20:16:10.903Z,16.11
2023-05-18T20:18:40.258Z,16.07
2023-05-18T20:21:08.735Z,16.05
2023-05-18T20:23:36.790Z,16.01
2023-05-18T20:26:06.013Z,15.99
2023-05-18T20:28:33.926Z,15.96
2023-05-18T20:31:01.878Z,15.94
2023-05-18T20:33:30.431Z,15.91
2023-05-18T20:35:59.960Z,15.88
2023-05-18T20:38:28.243Z,15.86
2023-05-18T20:40:58.173Z,15.83
2023-05-18T20:43:26.036Z,15.81
2023-05-18T20:45:54.016Z,15.78
2023-05-18T20:48:26.914Z,15.76
2023-05-18T20:50:55.070Z,15.73
2023-05-18T20:53:23.145Z,15.71
2023-05-18T20:55:51.036Z,15.68
2023-05-18T20:58:19.192Z,15.66
2023-05-18T21:00:48.087Z,15.65
2023-05-18T21:03:18.459Z,15.63
2023-05-18T21:05:49.593Z,15.61
2023-05-18T21:08:17.638Z,15.60
2023-05-18T21:10:45.696Z,15.59
2023-05-18T21:13:13.700Z,15.56
2023-05-18T21:15:41.701Z,15.55
2023-05-18T21:18:10.189Z,15.54
2023-05-18T21:20:38.292Z,15.53
2023-05-18T21:23:06.172Z,15.52
2023-05-18T21:25:34.012Z,15.50
2023-05-18T21:28:02.250Z,15.50
2023-05-18T21:30:31.598Z,15.48
2023-05-18T21:32:59.838Z,15.47
2023-05-18T21:35:28.025Z,15.45
2023-05-18T21:37:55.799Z,15.44
2023-05-18T21:40:23.740Z,15.42
2023-05-18T21:42:51.510Z,15.43
2023-05-18T21:45:21.976Z,15.43
2023-05-18T21:47:50.941Z,15.43
2023-05-18T21:50:19.164Z,15.43
2023-05-18T21:52:46.955Z,15.43
2023-05-18T21:55:14.807Z,15.45
2023-05-18T21:57:42.804Z,15.47
2023-05-18T22:00:14.144Z,15.47
2023-05-18T22:02:41.909Z,15.48
2023-05-18T22:05:10.065Z,15.49
2023-05-18T22:07:37.946Z,15.50
2023-05-18T22:10:06.515Z,15.50
2023-05-18T22:12:34.479Z,15.51
2023-05-18T22:15:02.401Z,15.51
2023-05-18T22:17:30.225Z,15.52
2023-05-18T22:19:58.098Z,15.52
2023-05-18T22:22:30.419Z,15.52
2023-05-18T22:24:58.617Z,15.51
2023-05-18T22:27:26.837Z,15.51
2023-05-18T22:29:54.869Z,15.50
2023-05-18T22:32:22.865Z,15.51
2023-05-18T22:34:51.045Z,15.51
2023-05-18T22:37:19.090Z,15.52
2023-05-18T22:39:47.110Z,15.52
2023-05-18T22:42:15.076Z,15.51
2023-05-18T22:44:43.085Z,15.49
2023-05-18T22:47:11.643Z,15.48
2023-05-18T22:49:41.361Z,15.46
2023-05-18T22:52:10.457Z,15.44
2023-05-18T22:54:38.430Z,15.43
2023-05-18T22:57:06.481Z,15.42
2023-05-18T22:59:35.335Z,15.41
2023-05-18T23:02:06.343Z,15.40
2023-05-18T23:04:35.712Z,15.38
2023-05-18T23:07:04.266Z,15.36
2023-05-18T23:09:32.248Z,15.32
2023-05-18T23:12:01.359Z,15.30
2023-05-18T23:14:31.333Z,15.26
2023-05-18T23:16:59.970Z,15.23
2023-05-18T23:19:27.978Z,15.21
2023-05-18T23:21:56.628Z,15.18
2023-05-18T23:24:24.401Z,15.14
2023-05-18T23:26:52.262Z,15.11
2023-05-18T23:29:20.237Z,15.08
2023-05-18T23:31:48.106Z,15.05
2023-05-18T23:34:16.358Z,15.02
2023-05-18T23:36:45.188Z,15.00
2023-05-18T23:39:13.261Z,14.97
2023-05-18T23:41:42.125Z,14.94
2023-05-18T23:44:10.207Z,14.90
2023-05-18T23:46:38.415Z,14.87
2023-05-18T23:49:07.082Z,14.84
2023-05-18T23:51:36.417Z,14.81
2023-05-18T23:54:07.419Z,14.79
2023-05-18T23:56:36.114Z,14.77
2023-05-18T23:59:04.391Z,14.75
